createdAt,value
2019-03-01T00:01:58.246Z,21.35
2019-03-01T00:04:46.731Z,19.85
2019-03-01T00:07:52.721Z,19.90
2019-03-01T00:10:32.205Z,19.95
2019-03-01T00:13:39.548Z,19.92
2019-03-01T00:16:23.743Z,19.60
2019-03-01T00:19:34.205Z,19.30
2019-03-01T00:22:31.246Z,20.15
2019-03-01T00:25:41.102Z,19.90
2019-03-01T00:28:54.653Z,19.57
2019-03-01T00:32:22.118Z,20.55
2019-03-01T00:35:25.589Z,19.12
2019-03-01T00:38:56.916Z,19.52
2019-03-01T00:41:49.844Z,18.77
2019-03-01T00:44:53.684Z,18.67
2019-03-01T00:47:23.045Z,19.35
2019-03-01T00:49:52.455Z,18.73
2019-03-01T00:52:21.744Z,18.10
2019-03-01T00:54:51.270Z,18.65
2019-03-01T00:57:20.585Z,18.60
2019-03-01T00:59:49.875Z,17.47
2019-03-01T01:02:19.224Z,17.60
2019-03-01T01:04:48.601Z,16.87
2019-03-01T01:07:18.318Z,17.45
2019-03-01T01:09:47.646Z,17.27
2019-03-01T01:12:17.155Z,16.95
2019-03-01T01:14:46.814Z,16.97
2019-03-01T01:17:16.180Z,16.25
2019-03-01T01:19:45.453Z,17.30
2019-03-01T01:22:14.804Z,16.80
2019-03-01T01:24:44.087Z,16.87
2019-03-01T01:27:13.377Z,17.02
2019-03-01T01:29:42.681Z,18.32
2019-03-01T01:32:11.989Z,16.40
2019-03-01T01:34:41.378Z,16.23
2019-03-01T01:37:10.699Z,16.97
2019-03-01T01:39:40.473Z,17.30
2019-03-01T01:42:09.820Z,16.90
2019-03-01T01:44:39.095Z,16.82
2019-03-01T01:47:08.376Z,17.52
2019-03-01T01:49:38.014Z,19.75
2019-03-01T01:52:07.385Z,22.32
2019-03-01T01:54:36.669Z,22.70
2019-03-01T01:57:05.993Z,22.07
2019-03-01T01:59:35.336Z,20.75
2019-03-01T02:02:04.661Z,20.50
2019-03-01T02:04:33.954Z,22.52
2019-03-01T02:07:03.293Z,21.42
2019-03-01T02:09:32.597Z,21.25
2019-03-01T02:12:01.875Z,22.17
2019-03-01T02:14:31.190Z,22.87
2019-03-01T02:17:00.500Z,23.15
2019-03-01T02:19:30.166Z,23.65
2019-03-01T02:21:59.446Z,24.15
2019-03-01T02:24:28.841Z,22.40
2019-03-01T02:27:26.210Z,23.27
2019-03-01T02:29:55.734Z,22.48
2019-03-01T02:32:40.341Z,23.05
2019-03-01T02:35:11.776Z,23.55
2019-03-01T02:37:41.457Z,24.40
2019-03-01T02:40:13.150Z,23.37
2019-03-01T02:42:42.519Z,24.73
2019-03-01T02:45:13.992Z,24.75
2019-03-01T02:47:43.278Z,25.43
2019-03-01T02:50:13.084Z,24.27
2019-03-01T02:52:42.484Z,24.00
2019-03-01T02:55:12.593Z,23.92
2019-03-01T02:57:42.047Z,23.70
2019-03-01T03:00:30.506Z,24.05
2019-03-01T03:02:59.841Z,24.12
2019-03-01T03:05:29.216Z,22.80
2019-03-01T03:08:03.342Z,22.93
2019-03-01T03:10:32.744Z,23.65
2019-03-01T03:13:04.423Z,23.97
2019-03-01T03:15:38.952Z,23.20
2019-03-01T03:18:08.372Z,22.62
2019-03-01T03:20:37.711Z,23.27
2019-03-01T03:23:07.023Z,22.75
2019-03-01T03:25:36.339Z,23.60
2019-03-01T03:28:05.731Z,23.40
2019-03-01T03:30:35.167Z,23.42
2019-03-01T03:33:04.632Z,23.20
2019-03-01T03:35:34.014Z,22.65
2019-03-01T03:38:03.428Z,23.50
2019-03-01T03:40:32.847Z,23.57
2019-03-01T03:43:02.412Z,23.07
2019-03-01T03:45:31.851Z,22.77
2019-03-01T03:48:01.173Z,22.25
2019-03-01T03:50:30.672Z,23.57
2019-03-01T03:53:00.026Z,23.75
2019-03-01T03:55:29.499Z,23.40
2019-03-01T03:57:59.100Z,22.62
2019-03-01T04:00:28.500Z,22.30
2019-03-01T04:02:57.813Z,22.77
2019-03-01T04:05:28.728Z,23.25
2019-03-01T04:07:58.143Z,22.87
2019-03-01T04:10:27.523Z,21.30
2019-03-01T04:12:56.958Z,22.05
2019-03-01T04:15:26.506Z,22.22
2019-03-01T04:17:55.824Z,22.75
2019-03-01T04:20:25.165Z,22.35
2019-03-01T04:22:54.498Z,22.47
2019-03-01T04:25:23.870Z,22.95
2019-03-01T04:27:53.541Z,22.37
2019-03-01T04:30:23.023Z,22.73
2019-03-01T04:32:52.342Z,23.70
2019-03-01T04:35:23.381Z,23.60
2019-03-01T04:37:52.704Z,23.98
2019-03-01T04:40:22.058Z,23.40
2019-03-01T04:42:51.468Z,23.60
2019-03-01T04:45:20.919Z,25.77
2019-03-01T04:47:50.259Z,26.20
2019-03-01T04:50:19.579Z,26.48
2019-03-01T04:52:48.958Z,27.17
2019-03-01T04:55:23.510Z,26.10
2019-03-01T04:57:52.880Z,26.42
2019-03-01T05:00:23.473Z,26.60
2019-03-01T05:02:53.123Z,27.32
2019-03-01T05:05:22.446Z,26.70
2019-03-01T05:07:51.827Z,26.30
2019-03-01T05:10:21.251Z,27.15
2019-03-01T05:12:50.932Z,26.05
2019-03-01T05:15:21.628Z,27.50
2019-03-01T05:17:51.007Z,26.48
2019-03-01T05:20:20.474Z,26.12
2019-03-01T05:22:49.841Z,27.65
2019-03-01T05:25:19.191Z,25.52
2019-03-01T05:27:48.935Z,26.20
2019-03-01T05:30:18.456Z,27.25
2019-03-01T05:32:47.770Z,24.82
2019-03-01T05:35:17.119Z,26.40
2019-03-01T05:37:46.454Z,27.75
2019-03-01T05:40:15.783Z,26.37
2019-03-01T05:42:45.125Z,26.03
2019-03-01T05:45:17.233Z,26.10
2019-03-01T05:47:46.815Z,26.77
2019-03-01T05:50:16.268Z,25.27
2019-03-01T05:52:45.647Z,26.20
2019-03-01T05:55:15.105Z,26.85
2019-03-01T05:58:20.451Z,27.40
2019-03-01T06:00:49.951Z,26.57
2019-03-01T06:03:57.492Z,26.25
2019-03-01T06:06:43.163Z,26.87
2019-03-01T06:09:52.391Z,26.52
2019-03-01T06:12:47.927Z,26.80
2019-03-01T06:15:54.779Z,27.15
2019-03-01T06:18:57.593Z,27.50
2019-03-01T06:22:10.675Z,28.70
2019-03-01T06:25:25.003Z,27.20
2019-03-01T06:28:30.380Z,28.00
2019-03-01T06:31:40.540Z,28.35
2019-03-01T06:34:55.549Z,26.73
2019-03-01T06:37:53.912Z,25.17
2019-03-01T06:40:54.099Z,26.45
2019-03-01T06:44:10.323Z,26.30
2019-03-01T06:47:18.544Z,25.45
2019-03-01T06:49:54.246Z,25.32
2019-03-01T06:52:25.114Z,28.30
2019-03-01T06:54:54.447Z,25.62
2019-03-01T06:57:23.840Z,24.80
2019-03-01T06:59:53.186Z,25.40
2019-03-01T07:02:27.802Z,26.07
2019-03-01T07:04:57.144Z,24.52
2019-03-01T07:07:26.540Z,25.50
2019-03-01T07:09:55.883Z,26.17
2019-03-01T07:12:25.574Z,26.45
2019-03-01T07:14:54.946Z,26.93
2019-03-01T07:17:24.343Z,25.17
2019-03-01T07:19:53.796Z,25.17
2019-03-01T07:22:23.132Z,25.72
2019-03-01T07:24:52.487Z,26.02
2019-03-01T07:27:21.883Z,26.05
2019-03-01T07:29:51.327Z,26.45
2019-03-01T07:32:20.763Z,26.30
2019-03-01T07:34:50.179Z,27.58
2019-03-01T07:37:21.790Z,25.37
2019-03-01T07:39:52.564Z,26.95
2019-03-01T07:42:21.916Z,26.42
2019-03-01T07:44:51.326Z,27.15
2019-03-01T07:47:20.707Z,27.27
2019-03-01T07:49:52.327Z,26.33
2019-03-01T07:52:21.697Z,27.60
2019-03-01T07:54:52.912Z,28.60
2019-03-01T07:57:22.331Z,27.52
2019-03-01T07:59:51.897Z,27.60
2019-03-01T08:02:21.264Z,29.20
2019-03-01T08:04:50.660Z,29.32
2019-03-01T08:07:20.493Z,28.05
2019-03-01T08:09:51.434Z,28.98
2019-03-01T08:12:20.866Z,28.30
2019-03-01T08:14:50.180Z,29.25
2019-03-01T08:17:19.563Z,29.25
2019-03-01T08:19:48.976Z,29.57
2019-03-01T08:22:20.908Z,29.90
2019-03-01T08:24:49.395Z,29.32
2019-03-01T08:27:18.738Z,28.55
2019-03-01T08:29:48.164Z,29.80
2019-03-01T08:32:17.637Z,29.10
2019-03-01T08:34:49.867Z,29.63
2019-03-01T08:37:18.493Z,30.50
2019-03-01T08:39:49.665Z,29.15
2019-03-01T08:42:19.019Z,30.55
2019-03-01T08:44:48.419Z,30.48
2019-03-01T08:47:23.552Z,30.23
2019-03-01T08:49:48.894Z,30.52
2019-03-01T08:52:18.763Z,31.48
2019-03-01T08:54:48.183Z,31.23
2019-03-01T08:57:17.673Z,31.52
2019-03-01T08:59:47.109Z,33.38
2019-03-01T09:02:19.463Z,34.15
2019-03-01T09:04:51.229Z,33.90
2019-03-01T09:07:20.215Z,34.13
2019-03-01T09:09:53.685Z,34.88
2019-03-01T09:12:22.323Z,34.65
2019-03-01T09:14:51.820Z,35.77
2019-03-01T09:17:21.232Z,32.95
2019-03-01T09:19:50.772Z,33.95
2019-03-01T09:22:20.130Z,34.63
2019-03-01T09:24:52.575Z,33.28
2019-03-01T09:27:22.756Z,33.80
2019-03-01T09:29:52.367Z,32.73
2019-03-01T09:32:22.127Z,33.45
2019-03-01T09:34:54.791Z,33.90
2019-03-01T09:37:24.223Z,33.35
2019-03-01T09:40:05.286Z,33.30
2019-03-01T09:42:27.743Z,32.67
2019-03-01T09:44:57.079Z,32.93
2019-03-01T09:47:26.531Z,33.90
2019-03-01T09:49:56.552Z,34.20
2019-03-01T09:52:26.918Z,33.98
2019-03-01T09:54:56.333Z,35.65
2019-03-01T09:57:25.675Z,35.50
2019-03-01T09:59:55.079Z,33.90
2019-03-01T10:02:24.491Z,35.05
2019-03-01T10:04:53.950Z,35.85
2019-03-01T10:07:23.380Z,34.15
2019-03-01T10:09:52.768Z,35.30
2019-03-01T10:12:22.218Z,35.78
2019-03-01T10:14:51.678Z,36.20
2019-03-01T10:17:21.128Z,36.60
2019-03-01T10:19:50.603Z,36.38
2019-03-01T10:22:19.953Z,36.38
2019-03-01T10:24:49.486Z,37.60
2019-03-01T10:27:19.196Z,36.30
2019-03-01T10:29:48.563Z,36.13
2019-03-01T10:32:17.927Z,38.15
2019-03-01T10:34:47.267Z,38.60
2019-03-01T10:37:17.015Z,37.90
2019-03-01T10:39:52.798Z,38.67
2019-03-01T10:42:17.521Z,38.87
2019-03-01T10:44:47.064Z,37.50
2019-03-01T10:47:17.985Z,38.08
2019-03-01T10:49:47.603Z,38.23
2019-03-01T10:52:17.226Z,38.67
2019-03-01T10:54:46.919Z,38.73
2019-03-01T10:57:16.514Z,37.07
2019-03-01T10:59:46.222Z,35.63
2019-03-01T11:02:16.060Z,35.52
2019-03-01T11:04:45.546Z,36.30
2019-03-01T11:07:15.488Z,36.77
2019-03-01T11:09:45.390Z,34.90
2019-03-01T11:12:14.977Z,35.70
2019-03-01T11:14:44.661Z,36.35
2019-03-01T11:17:14.308Z,35.73
2019-03-01T11:19:43.958Z,37.35
2019-03-01T11:22:13.572Z,36.43
2019-03-01T11:24:42.979Z,34.65
2019-03-01T11:27:13.136Z,34.25
2019-03-01T11:29:42.782Z,34.00
2019-03-01T11:32:12.127Z,33.75
2019-03-01T11:34:41.451Z,30.92
2019-03-01T11:37:10.813Z,30.90
2019-03-01T11:39:40.213Z,31.87
2019-03-01T11:42:11.323Z,30.23
2019-03-01T11:44:40.715Z,32.40
2019-03-01T11:47:10.131Z,29.67
2019-03-01T11:49:39.535Z,30.82
2019-03-01T11:52:08.923Z,30.48
2019-03-01T11:54:38.301Z,30.12
2019-03-01T11:57:07.733Z,30.60
2019-03-01T11:59:37.162Z,29.05
2019-03-01T12:02:06.490Z,28.85
2019-03-01T12:04:35.933Z,29.30
2019-03-01T12:07:05.264Z,28.65
2019-03-01T12:09:34.711Z,27.32
2019-03-01T12:12:04.329Z,27.10
2019-03-01T12:14:33.718Z,26.37
2019-03-01T12:17:03.467Z,27.35
2019-03-01T12:19:32.848Z,26.87
2019-03-01T12:22:02.179Z,26.52
2019-03-01T12:24:31.553Z,28.15
2019-03-01T12:27:00.951Z,26.02
2019-03-01T12:29:30.311Z,24.27
2019-03-01T12:31:59.676Z,25.52
2019-03-01T12:34:29.093Z,23.27
2019-03-01T12:36:58.460Z,22.25
2019-03-01T12:39:28.727Z,22.20
2019-03-01T12:41:58.075Z,23.90
2019-03-01T12:44:27.424Z,22.05
2019-03-01T12:46:56.775Z,22.00
2019-03-01T12:49:26.138Z,21.27
2019-03-01T12:51:55.465Z,21.67
2019-03-01T12:54:24.823Z,18.75
2019-03-01T12:56:54.177Z,19.47
2019-03-01T12:59:23.884Z,19.35
2019-03-01T13:01:53.258Z,18.75
2019-03-01T13:04:22.572Z,18.40
2019-03-01T13:06:51.931Z,18.87
2019-03-01T13:09:23.409Z,19.60
2019-03-01T13:11:52.429Z,18.80
2019-03-01T13:14:21.865Z,18.37
2019-03-01T13:16:51.289Z,18.00
2019-03-01T13:19:23.339Z,16.23
2019-03-01T13:21:52.095Z,16.97
2019-03-01T13:24:21.487Z,13.83
2019-03-01T13:26:50.884Z,13.50
2019-03-01T13:29:22.299Z,11.95
2019-03-01T13:31:51.414Z,13.43
2019-03-01T13:34:20.762Z,12.55
2019-03-01T13:36:50.212Z,12.75
2019-03-01T13:39:20.731Z,12.47
2019-03-01T13:41:50.232Z,12.60
2019-03-01T13:44:19.858Z,11.88
2019-03-01T13:46:49.231Z,10.93
2019-03-01T13:49:18.563Z,11.15
2019-03-01T13:51:52.955Z,10.58
2019-03-01T13:54:21.556Z,10.80
2019-03-01T13:56:50.955Z,10.90
2019-03-01T13:59:20.274Z,10.13
2019-03-01T14:01:49.875Z,10.13
2019-03-01T14:04:19.350Z,9.65
2019-03-01T14:06:48.998Z,9.65
2019-03-01T14:09:18.720Z,9.53
2019-03-01T14:11:48.071Z,10.70
2019-03-01T14:14:17.415Z,10.05
2019-03-01T14:16:46.753Z,10.93
2019-03-01T14:19:16.195Z,9.80
2019-03-01T14:21:45.527Z,9.50
2019-03-01T14:24:14.895Z,11.20
2019-03-01T14:26:44.327Z,9.25
2019-03-01T14:29:16.100Z,9.63
2019-03-01T14:31:44.924Z,9.75
2019-03-01T14:34:14.311Z,8.53
2019-03-01T14:36:43.953Z,8.03
2019-03-01T14:39:17.962Z,8.15
2019-03-01T14:41:47.346Z,8.25
2019-03-01T14:44:16.742Z,7.90
2019-03-01T14:46:46.846Z,7.83
2019-03-01T14:49:18.448Z,7.78
2019-03-01T14:51:47.679Z,7.20
2019-03-01T14:54:17.445Z,6.58
2019-03-01T14:56:53.551Z,6.62
2019-03-01T14:59:27.192Z,6.65
2019-03-01T15:02:21.752Z,6.12
2019-03-01T15:04:51.137Z,6.17
2019-03-01T15:07:20.459Z,6.20
2019-03-01T15:09:53.203Z,6.47
2019-03-01T15:12:21.351Z,6.20
2019-03-01T15:14:50.897Z,6.28
2019-03-01T15:17:21.871Z,5.70
2019-03-01T15:19:51.551Z,5.65
2019-03-01T15:22:20.878Z,5.77
2019-03-01T15:24:50.487Z,5.97
2019-03-01T15:27:19.887Z,6.03
2019-03-01T15:29:49.322Z,5.77
2019-03-01T15:32:18.743Z,5.90
2019-03-01T15:34:48.341Z,5.42
2019-03-01T15:37:17.702Z,5.47
2019-03-01T15:39:47.068Z,5.78
2019-03-01T15:42:17.632Z,5.40
2019-03-01T15:44:47.919Z,6.37
2019-03-01T15:47:17.249Z,5.67
2019-03-01T15:49:48.095Z,6.43
2019-03-01T15:52:18.484Z,6.87
2019-03-01T15:54:48.131Z,6.37
2019-03-01T15:57:18.885Z,6.30
2019-03-01T15:59:48.918Z,5.97
2019-03-01T16:02:18.345Z,6.37
2019-03-01T16:04:47.678Z,6.20
2019-03-01T16:07:17.015Z,6.40
2019-03-01T16:09:46.392Z,6.30
2019-03-01T16:12:16.018Z,6.53
2019-03-01T16:14:45.324Z,6.10
2019-03-01T16:17:14.695Z,6.70
2019-03-01T16:19:46.929Z,6.03
2019-03-01T16:22:15.425Z,5.83
2019-03-01T16:24:46.194Z,5.55
2019-03-01T16:27:15.548Z,6.03
2019-03-01T16:29:44.972Z,6.15
2019-03-01T16:32:14.604Z,6.42
2019-03-01T16:34:43.891Z,5.70
2019-03-01T16:37:13.215Z,5.20
2019-03-01T16:39:42.601Z,4.90
2019-03-01T16:42:14.565Z,4.55
2019-03-01T16:44:44.784Z,4.53
2019-03-01T16:47:17.583Z,4.60
2019-03-01T16:49:46.913Z,5.17
2019-03-01T16:52:16.230Z,4.85
2019-03-01T16:54:51.473Z,4.80
2019-03-01T16:57:20.748Z,4.90
2019-03-01T16:59:50.253Z,4.90
2019-03-01T17:02:19.568Z,5.50
2019-03-01T17:04:48.967Z,5.37
2019-03-01T17:07:21.435Z,5.25
2019-03-01T17:09:54.895Z,8.20
2019-03-01T17:12:23.369Z,5.40
2019-03-01T17:14:52.801Z,7.30
2019-03-01T17:17:22.146Z,6.30
2019-03-01T17:19:51.483Z,7.15
2019-03-01T17:22:23.229Z,6.65
2019-03-01T17:24:52.102Z,6.30
2019-03-01T17:27:21.666Z,6.90
2019-03-01T17:29:50.974Z,6.55
2019-03-01T17:32:20.497Z,6.28
2019-03-01T17:34:52.296Z,7.08
2019-03-01T17:37:21.626Z,7.30
2019-03-01T17:39:53.150Z,7.30
2019-03-01T17:42:21.995Z,9.95
2019-03-01T17:44:51.792Z,11.33
2019-03-01T17:47:21.230Z,7.92
2019-03-01T17:49:50.687Z,8.18
2019-03-01T17:52:20.024Z,7.60
2019-03-01T17:54:49.327Z,7.83
2019-03-01T17:57:20.098Z,6.83
2019-03-01T17:59:49.551Z,7.75
2019-03-01T18:02:18.883Z,7.15
2019-03-01T18:04:48.221Z,7.30
2019-03-01T18:07:23.727Z,6.75
2019-03-01T18:09:51.914Z,7.15
2019-03-01T18:12:22.531Z,7.30
2019-03-01T18:14:51.866Z,7.00
2019-03-01T18:17:21.207Z,6.92
2019-03-01T18:19:50.558Z,7.50
2019-03-01T18:22:22.907Z,7.33
2019-03-01T18:24:51.031Z,6.90
2019-03-01T18:27:20.403Z,7.57
2019-03-01T18:29:50.048Z,7.25
2019-03-01T18:32:19.590Z,6.90
2019-03-01T18:34:49.051Z,6.90
2019-03-01T18:37:19.820Z,6.50
2019-03-01T18:39:49.570Z,6.12
2019-03-01T18:42:18.880Z,6.17
2019-03-01T18:44:48.188Z,6.00
2019-03-01T18:47:17.530Z,5.60
2019-03-01T18:49:46.828Z,5.50
2019-03-01T18:52:17.577Z,5.20
2019-03-01T18:54:47.331Z,5.80
2019-03-01T18:57:16.627Z,6.42
2019-03-01T18:59:46.017Z,6.10
2019-03-01T19:02:15.438Z,5.20
2019-03-01T19:04:44.868Z,5.80
2019-03-01T19:07:14.212Z,5.62
2019-03-01T19:09:43.592Z,5.80
2019-03-01T19:12:13.430Z,5.22
2019-03-01T19:14:42.919Z,5.25
2019-03-01T19:17:12.227Z,4.90
2019-03-01T19:19:43.212Z,5.53
2019-03-01T19:22:12.634Z,4.78
2019-03-01T19:24:46.765Z,5.45
2019-03-01T19:27:15.669Z,5.80
2019-03-01T19:29:45.680Z,5.45
2019-03-01T19:32:15.043Z,5.10
2019-03-01T19:34:44.359Z,5.03
2019-03-01T19:37:14.554Z,5.90
2019-03-01T19:39:46.918Z,7.80
2019-03-01T19:42:16.788Z,5.00
2019-03-01T19:44:46.116Z,4.62
2019-03-01T19:47:17.635Z,4.43
2019-03-01T19:49:48.702Z,5.03
2019-03-01T19:52:17.991Z,5.57
2019-03-01T19:54:47.415Z,7.08
2019-03-01T19:57:16.748Z,5.62
2019-03-01T19:59:46.561Z,5.85
2019-03-01T20:02:17.082Z,5.37
2019-03-01T20:04:46.450Z,5.53
2019-03-01T20:07:19.724Z,5.42
2019-03-01T20:09:47.228Z,5.33
2019-03-01T20:12:18.259Z,4.65
2019-03-01T20:14:47.577Z,5.12
2019-03-01T20:17:19.943Z,5.12
2019-03-01T20:19:49.243Z,5.08
2019-03-01T20:22:19.408Z,4.40
2019-03-01T20:24:48.850Z,4.30
2019-03-01T20:27:18.220Z,4.50
2019-03-01T20:29:49.498Z,4.93
2019-03-01T20:32:18.596Z,4.60
2019-03-01T20:34:47.987Z,4.40
2019-03-01T20:37:17.390Z,4.28
2019-03-01T20:39:47.417Z,4.28
2019-03-01T20:42:22.980Z,4.50
2019-03-01T20:44:50.260Z,4.42
2019-03-01T20:47:19.947Z,4.70
2019-03-01T20:49:49.295Z,4.65
2019-03-01T20:52:18.599Z,4.40
2019-03-01T20:54:48.237Z,4.85
2019-03-01T20:57:17.573Z,4.67
2019-03-01T20:59:50.521Z,4.25
2019-03-01T21:02:18.321Z,4.47
2019-03-01T21:04:53.261Z,5.17
2019-03-01T21:07:18.784Z,4.67
2019-03-01T21:09:48.897Z,4.40
2019-03-01T21:12:18.583Z,4.70
2019-03-01T21:14:47.947Z,5.10
2019-03-01T21:17:20.355Z,4.67
2019-03-01T21:19:48.415Z,4.67
2019-03-01T21:22:17.799Z,4.72
2019-03-01T21:24:47.169Z,4.75
2019-03-01T21:27:18.006Z,4.17
2019-03-01T21:29:47.619Z,4.50
2019-03-01T21:32:17.744Z,5.27
2019-03-01T21:34:47.116Z,4.87
2019-03-01T21:37:17.832Z,5.22
2019-03-01T21:39:47.588Z,5.10
2019-03-01T21:42:20.204Z,5.03
2019-03-01T21:44:48.022Z,5.60
2019-03-01T21:47:20.361Z,5.00
2019-03-01T21:49:49.762Z,5.15
2019-03-01T21:52:20.907Z,5.25
2019-03-01T21:54:51.944Z,4.35
2019-03-01T21:57:21.676Z,5.05
2019-03-01T21:59:52.509Z,4.60
2019-03-01T22:02:22.158Z,4.90
2019-03-01T22:04:51.486Z,4.95
2019-03-01T22:07:22.558Z,4.85
2019-03-01T22:09:51.906Z,4.60
2019-03-01T22:12:24.669Z,4.28
2019-03-01T22:14:52.520Z,4.85
2019-03-01T22:17:21.855Z,5.03
2019-03-01T22:19:52.259Z,4.30
2019-03-01T22:22:21.710Z,4.70
2019-03-01T22:24:51.021Z,4.58
2019-03-01T22:27:21.594Z,4.95
2019-03-01T22:29:53.071Z,5.03
2019-03-01T22:32:22.395Z,4.80
2019-03-01T22:34:52.059Z,4.85
2019-03-01T22:37:24.766Z,4.53
2019-03-01T22:39:52.452Z,4.60
2019-03-01T22:44:57.484Z,4.37
2019-03-01T22:48:11.791Z,4.65
2019-03-01T22:50:42.634Z,4.40
2019-03-01T22:53:12.891Z,4.60
2019-03-01T22:55:42.689Z,4.33
2019-03-01T22:58:12.189Z,4.40
2019-03-01T23:01:32.714Z,4.42
2019-03-01T23:04:05.962Z,4.87
2019-03-01T23:06:35.066Z,4.53
2019-03-01T23:09:10.837Z,4.97
2019-03-01T23:11:38.743Z,5.20
2019-03-01T23:14:07.853Z,4.78
2019-03-01T23:16:36.969Z,4.20
2019-03-01T23:19:06.360Z,4.78
2019-03-01T23:21:36.019Z,5.90
2019-03-01T23:24:06.192Z,4.50
2019-03-01T23:26:35.301Z,4.60
2019-03-01T23:29:04.388Z,4.65
2019-03-01T23:31:35.677Z,4.47
2019-03-01T23:34:07.088Z,4.50
2019-03-01T23:36:35.084Z,4.75
2019-03-01T23:39:04.916Z,5.75
2019-03-01T23:41:33.999Z,5.05
2019-03-01T23:44:06.554Z,5.10
2019-03-01T23:46:35.103Z,4.65
2019-03-01T23:49:06.466Z,4.58
2019-03-01T23:51:35.063Z,4.90
2019-03-01T23:54:05.747Z,4.83
2019-03-01T23:56:35.023Z,5.10
2019-03-01T23:59:04.462Z,5.23
